Time,TemperatureF,DewpointF,PressureIn,WindDirection,WindDirectionDegrees,WindSpeedMPH,WindSpeedGustMPH,Humidity,HourlyPrecipIn,Conditions,Clouds,dailyrainin,SoftwareType,DateUTC
2013-09-18 00:04:00,53.2,49.7,29.81,SE,135,0.0,-999.0,88,-99.99,,,0.00,Acu-Link.com,2013-09-18 07:04:00,
2013-09-18 00:20:00,53.1,50.2,29.81,SE,135,0.0,-999.0,90,-99.99,,,0.00,Acu-Link.com,2013-09-18 07:20:00,
2013-09-18 00:35:00,52.7,49.2,29.81,SE,135,0.0,-999.0,88,-99.99,,,0.00,Acu-Link.com,2013-09-18 07:35:00,
2013-09-18 00:50:00,52.2,49.4,29.81,SE,135,0.0,-999.0,90,-99.99,,,0.00,Acu-Link.com,2013-09-18 07:50:00,
2013-09-18 01:07:00,51.8,49.0,29.81,SE,135,0.0,-999.0,90,-99.99,,,0.00,Acu-Link.com,2013-09-18 08:07:00,
2013-09-18 01:23:00,52.0,49.5,29.81,SE,135,0.0,-999.0,91,-99.99,,,0.00,Acu-Link.com,2013-09-18 08:23:00,
2013-09-18 01:38:00,51.6,49.1,29.82,SE,135,0.0,-999.0,91,-99.99,,,0.00,Acu-Link.com,2013-09-18 08:38:00,
2013-09-18 01:53:00,51.4,49.2,29.81,SE,135,0.0,-999.0,92,-99.99,,,0.00,Acu-Link.com,2013-09-18 08:53:00,
2013-09-18 02:08:00,50.7,48.5,29.81,SE,135,0.0,-999.0,92,-99.99,,,0.00,Acu-Link.com,2013-09-18 09:08:00,
2013-09-18 02:23:00,50.4,48.5,29.81,SE,135,0.0,-999.0,93,-99.99,,,0.00,Acu-Link.com,2013-09-18 09:23:00,
2013-09-18 02:38:00,50.4,48.7,29.81,SE,135,0.0,-999.0,94,-99.99,,,0.00,Acu-Link.com,2013-09-18 09:38:00,
2013-09-18 02:53:00,50.9,49.5,29.81,SE,135,0.0,-999.0,95,-99.99,,,0.00,Acu-Link.com,2013-09-18 09:53:00,
2013-09-18 03:08:00,50.5,48.8,29.81,SE,135,0.0,-999.0,94,-99.99,,,0.00,Acu-Link.com,2013-09-18 10:08:00,
2013-09-18 03:24:00,51.6,49.6,29.80,SW,225,2.2,-999.0,93,-99.99,,,0.00,Acu-Link.com,2013-09-18 10:24:00,
2013-09-18 03:39:00,52.5,50.8,29.80,South,180,0.0,-999.0,94,-99.99,,,0.00,Acu-Link.com,2013-09-18 10:39:00,
2013-09-18 03:54:00,52.0,50.6,29.79,South,180,0.0,-999.0,95,-99.99,,,0.00,Acu-Link.com,2013-09-18 10:54:00,
2013-09-18 04:09:00,51.6,50.2,29.79,South,180,0.0,-999.0,95,-99.99,,,0.00,Acu-Link.com,2013-09-18 11:09:00,
2013-09-18 04:25:00,52.2,50.8,29.80,WNW,292,2.2,-999.0,95,-99.99,,,0.00,Acu-Link.com,2013-09-18 11:25:00,
2013-09-18 04:40:00,51.6,50.2,29.80,West,270,0.0,-999.0,95,-99.99,,,0.00,Acu-Link.com,2013-09-18 11:40:00,
2013-09-18 04:55:00,52.0,50.0,29.80,West,270,0.0,-999.0,93,-99.99,,,0.00,Acu-Link.com,2013-09-18 11:55:00,
2013-09-18 05:11:00,51.1,48.9,29.80,West,270,0.0,-999.0,92,-99.99,,,0.00,Acu-Link.com,2013-09-18 12:11:00,
2013-09-18 05:26:00,50.5,48.8,29.80,SE,135,0.0,-999.0,94,-99.99,,,0.00,Acu-Link.com,2013-09-18 12:26:00,
2013-09-18 05:41:00,50.4,49.0,29.80,SE,135,0.0,-999.0,95,-99.99,,,0.00,Acu-Link.com,2013-09-18 12:41:00,
2013-09-18 05:56:00,50.2,49.1,29.81,SE,135,0.0,-999.0,96,-99.99,,,0.00,Acu-Link.com,2013-09-18 12:56:00,
2013-09-18 06:12:00,50.2,49.1,29.82,SE,135,0.0,-999.0,96,-99.99,,,0.00,Acu-Link.com,2013-09-18 13:12:00,
2013-09-18 06:27:00,50.4,49.3,29.83,SE,135,0.0,-999.0,96,-99.99,,,0.00,Acu-Link.com,2013-09-18 13:27:00,
2013-09-18 06:42:00,49.6,48.2,29.83,SE,135,0.0,-999.0,95,-99.99,,,0.00,Acu-Link.com,2013-09-18 13:42:00,
2013-09-18 06:58:00,49.5,48.4,29.84,SE,135,0.0,-999.0,96,-99.99,,,0.00,Acu-Link.com,2013-09-18 13:58:00,
2013-09-18 07:13:00,49.6,48.5,29.83,SE,135,0.0,-999.0,96,-99.99,,,0.00,Acu-Link.com,2013-09-18 14:13:00,
2013-09-18 07:28:00,50.2,48.8,29.84,SE,135,0.0,-999.0,95,-99.99,,,0.00,Acu-Link.com,2013-09-18 14:28:00,
2013-09-18 07:44:00,51.3,49.3,29.84,SE,135,0.0,-999.0,93,-99.99,,,0.00,Acu-Link.com,2013-09-18 14:44:00,
2013-09-18 07:59:00,51.8,50.1,29.83,SE,135,0.0,-999.0,94,-99.99,,,0.00,Acu-Link.com,2013-09-18 14:59:00,
2013-09-18 08:14:00,56.5,53.0,29.84,SE,135,0.0,-999.0,88,-99.99,,,0.00,Acu-Link.com,2013-09-18 15:14:00,
2013-09-18 08:29:00,62.4,53.3,29.84,NE,45,0.0,-999.0,72,-99.99,,,0.00,Acu-Link.com,2013-09-18 15:29:00,
2013-09-18 09:00:00,70.9,54.4,29.84,WNW,292,0.0,-999.0,56,-99.99,,,0.00,Acu-Link.com,2013-09-18 16:00:00,
2013-09-18 09:15:00,73.9,54.6,29.85,WNW,292,2.7,-999.0,51,-99.99,,,0.00,Acu-Link.com,2013-09-18 16:15:00,
2013-09-18 09:31:00,74.5,54.6,29.85,West,270,2.2,-999.0,50,-99.99,,,0.00,Acu-Link.com,2013-09-18 16:31:00,
2013-09-18 09:46:00,70.0,52.6,29.85,WNW,292,1.1,-999.0,54,-99.99,,,0.00,Acu-Link.com,2013-09-18 16:46:00,
2013-09-18 10:01:00,70.9,52.4,29.83,NW,315,2.2,-999.0,52,-99.99,,,0.00,Acu-Link.com,2013-09-18 17:01:00,
2013-09-18 10:16:00,71.8,51.0,29.86,NNE,22,0.0,-999.0,48,-99.99,,,0.00,Acu-Link.com,2013-09-18 17:16:00,
2013-09-18 10:32:00,73.8,52.3,29.84,ENE,67,2.7,-999.0,47,-99.99,,,0.00,Acu-Link.com,2013-09-18 17:32:00,
2013-09-18 10:47:00,74.1,51.4,29.86,NE,45,0.0,-999.0,45,-99.99,,,0.00,Acu-Link.com,2013-09-18 17:47:00,
2013-09-18 11:02:00,77.0,50.8,29.84,ESE,112,4.7,-999.0,40,-99.99,,,0.00,Acu-Link.com,2013-09-18 18:02:00,
2013-09-18 11:17:00,81.1,50.8,29.83,NNW,337,0.0,-999.0,35,-99.99,,,0.00,Acu-Link.com,2013-09-18 18:17:00,
2013-09-18 11:33:00,76.8,49.3,29.84,NNE,22,4.7,-999.0,38,-99.99,,,0.00,Acu-Link.com,2013-09-18 18:33:00,
2013-09-18 11:48:00,78.1,49.7,29.83,North,0,5.3,-999.0,37,-99.99,,,0.00,Acu-Link.com,2013-09-18 18:48:00,
2013-09-18 12:03:00,78.6,49.4,29.82,NNW,337,3.7,-999.0,36,-99.99,,,0.00,Acu-Link.com,2013-09-18 19:03:00,
2013-09-18 12:18:00,79.2,49.2,29.82,ENE,67,2.2,-999.0,35,-99.99,,,0.00,Acu-Link.com,2013-09-18 19:18:00,
2013-09-18 12:34:00,80.4,47.8,29.82,NE,45,4.7,-999.0,32,-99.99,,,0.00,Acu-Link.com,2013-09-18 19:34:00,
2013-09-18 12:49:00,81.3,48.6,29.82,NW,315,2.2,-999.0,32,-99.99,,,0.00,Acu-Link.com,2013-09-18 19:49:00,
2013-09-18 13:04:00,81.3,46.0,29.82,West,270,2.7,-999.0,29,-99.99,,,0.00,Acu-Link.com,2013-09-18 20:04:00,
2013-09-18 13:19:00,83.8,48.1,29.81,NE,45,3.2,-999.0,29,-99.99,,,0.00,Acu-Link.com,2013-09-18 20:19:00,
2013-09-18 13:35:00,83.3,47.7,29.80,NNW,337,3.7,-999.0,29,-99.99,,,0.00,Acu-Link.com,2013-09-18 20:35:00,
2013-09-18 13:50:00,83.8,48.1,29.80,WNW,292,8.9,-999.0,29,-99.99,,,0.00,Acu-Link.com,2013-09-18 20:50:00,
2013-09-18 14:21:00,84.0,44.4,29.78,NNW,337,6.3,-999.0,25,-99.99,,,0.00,Acu-Link.com,2013-09-18 21:21:00,
2013-09-18 14:36:00,85.8,41.3,29.77,East,90,8.9,-999.0,21,-99.99,,,0.00,Acu-Link.com,2013-09-18 21:36:00,
2013-09-18 14:51:00,84.2,41.2,29.77,East,90,1.7,-999.0,22,-99.99,,,0.00,Acu-Link.com,2013-09-18 21:51:00,
2013-09-18 15:06:00,86.0,40.2,29.76,WSW,247,5.8,-999.0,20,-99.99,,,0.00,Acu-Link.com,2013-09-18 22:06:00,
2013-09-18 15:22:00,85.8,38.8,29.76,NNW,337,6.8,-999.0,19,-99.99,,,0.00,Acu-Link.com,2013-09-18 22:22:00,
2013-09-18 15:37:00,86.4,40.6,29.77,NNW,337,4.7,-999.0,20,-99.99,,,0.00,Acu-Link.com,2013-09-18 22:37:00,
2013-09-18 15:52:00,86.2,41.7,29.76,NW,315,6.8,-999.0,21,-99.99,,,0.00,Acu-Link.com,2013-09-18 22:52:00,
2013-09-18 16:07:00,84.2,45.6,29.75,West,270,6.8,-999.0,26,-99.99,,,0.00,Acu-Link.com,2013-09-18 23:07:00,
2013-09-18 16:22:00,83.5,45.0,29.76,NE,45,5.3,-999.0,26,-99.99,,,0.00,Acu-Link.com,2013-09-18 23:22:00,
2013-09-18 16:38:00,83.8,46.2,29.76,ENE,67,2.7,-999.0,27,-99.99,,,0.00,Acu-Link.com,2013-09-18 23:38:00,
2013-09-18 17:08:00,82.9,42.4,29.76,WNW,292,6.3,-999.0,24,-99.99,,,0.00,Acu-Link.com,2013-09-19 00:08:00,
2013-09-18 17:23:00,81.5,43.3,29.76,East,90,6.3,-999.0,26,-99.99,,,0.00,Acu-Link.com,2013-09-19 00:23:00,
2013-09-18 17:39:00,80.4,44.3,29.76,SW,225,4.2,-999.0,28,-99.99,,,0.00,Acu-Link.com,2013-09-19 00:39:00,
2013-09-18 17:54:00,79.7,43.7,29.75,NE,45,5.3,-999.0,28,-99.99,,,0.00,Acu-Link.com,2013-09-19 00:54:00,
2013-09-18 18:09:00,78.8,47.2,29.76,WNW,292,4.2,-999.0,33,-99.99,,,0.00,Acu-Link.com,2013-09-19 01:09:00,
2013-09-18 18:24:00,76.6,49.1,29.76,East,90,2.2,-999.0,38,-99.99,,,0.00,Acu-Link.com,2013-09-19 01:24:00,
2013-09-18 18:40:00,77.4,49.8,29.75,SSW,202,2.2,-999.0,38,-99.99,,,0.00,Acu-Link.com,2013-09-19 01:40:00,
2013-09-18 18:55:00,75.4,49.4,29.75,WNW,292,1.7,-999.0,40,-99.99,,,0.00,Acu-Link.com,2013-09-19 01:55:00,
2013-09-18 19:10:00,71.8,48.7,29.76,WNW,292,0.0,-999.0,44,-99.99,,,0.00,Acu-Link.com,2013-09-19 02:10:00,
2013-09-18 19:26:00,69.4,48.3,29.76,WNW,292,0.0,-999.0,47,-99.99,,,0.00,Acu-Link.com,2013-09-19 02:26:00,
2013-09-18 19:41:00,67.3,48.0,29.77,WNW,292,0.0,-999.0,50,-99.99,,,0.00,Acu-Link.com,2013-09-19 02:41:00,
2013-09-18 19:56:00,66.2,48.0,29.77,WNW,292,0.0,-999.0,52,-99.99,,,0.00,Acu-Link.com,2013-09-19 02:56:00,
2013-09-18 20:12:00,64.4,47.9,29.78,WNW,292,0.0,-999.0,55,-99.99,,,0.00,Acu-Link.com,2013-09-19 03:12:00,
2013-09-18 20:27:00,63.5,47.5,29.78,SE,135,0.0,-999.0,56,-99.99,,,0.00,Acu-Link.com,2013-09-19 03:27:00,
2013-09-18 20:42:00,62.8,47.8,29.78,SE,135,0.0,-999.0,58,-99.99,,,0.00,Acu-Link.com,2013-09-19 03:42:00,
2013-09-18 20:57:00,62.1,46.7,29.79,SE,135,0.0,-999.0,57,-99.99,,,0.00,Acu-Link.com,2013-09-19 03:57:00,
2013-09-18 21:12:00,61.2,47.6,29.79,SE,135,0.0,-999.0,61,-99.99,,,0.00,Acu-Link.com,2013-09-19 04:12:00,
2013-09-18 21:28:00,61.2,48.9,29.79,SE,135,0.0,-999.0,64,-99.99,,,0.00,Acu-Link.com,2013-09-19 04:28:00,
2013-09-18 21:43:00,60.6,49.6,29.79,SE,135,0.0,-999.0,67,-99.99,,,0.00,Acu-Link.com,2013-09-19 04:43:00,
2013-09-18 21:58:00,58.8,47.1,29.79,SE,135,0.0,-999.0,65,-99.99,,,0.00,Acu-Link.com,2013-09-19 04:58:00,
2013-09-18 22:13:00,57.9,47.4,29.79,SE,135,2.2,-999.0,68,-99.99,,,0.00,Acu-Link.com,2013-09-19 05:13:00,
2013-09-18 22:29:00,57.9,49.3,29.78,SE,135,2.7,-999.0,73,-99.99,,,0.00,Acu-Link.com,2013-09-19 05:29:00,
2013-09-18 22:44:00,57.7,49.8,29.78,SE,135,0.0,-999.0,75,-99.99,,,0.00,Acu-Link.com,2013-09-19 05:44:00,
2013-09-18 22:59:00,57.0,49.5,29.77,SE,135,0.0,-999.0,76,-99.99,,,0.00,Acu-Link.com,2013-09-19 05:59:00,
2013-09-18 23:15:00,55.9,49.1,29.79,SE,135,0.0,-999.0,78,-99.99,,,0.00,Acu-Link.com,2013-09-19 06:15:00,
2013-09-18 23:30:00,55.0,46.5,29.78,SE,135,0.0,-999.0,73,-99.99,,,0.00,Acu-Link.com,2013-09-19 06:30:00,
2013-09-18 23:45:00,54.3,45.5,29.77,SE,135,0.0,-999.0,72,-99.99,,,0.00,Acu-Link.com,2013-09-19 06:45:00,